TimeCST,TemperatureF,Dew PointF,Humidity,Sea Level PressureIn,VisibilityMPH,Wind Direction,Wind SpeedMPH,Gust SpeedMPH,PrecipitationIn,Events,Conditions,WindDirDegrees,DateUTC
12:15 AM,32.4,32.0,99,30.07,3.0,Calm,Calm,-,N/A,,Clear,0,2012-11-09 06:15:00
12:35 AM,32.4,32.0,99,30.07,4.0,Calm,Calm,-,N/A,,Clear,0,2012-11-09 06:35:00
12:55 AM,32.5,32.0,98,30.06,5.0,Calm,Calm,-,N/A,,Clear,0,2012-11-09 06:55:00
1:15 AM,31.1,30.4,97,30.06,4.0,Calm,Calm,-,N/A,,Clear,0,2012-11-09 07:15:00
1:35 AM,31.3,30.7,98,30.05,3.0,Calm,Calm,-,N/A,,Clear,0,2012-11-09 07:35:00
1:55 AM,32.0,31.5,98,30.05,4.0,Calm,Calm,-,N/A,,Clear,0,2012-11-09 07:55:00
2:15 AM,32.0,31.5,98,30.04,4.0,Calm,Calm,-,N/A,,Clear,0,2012-11-09 08:15:00
2:35 AM,32.0,31.8,99,30.04,3.0,Calm,Calm,-,N/A,,Clear,0,2012-11-09 08:35:00
2:55 AM,32.0,31.6,99,30.04,4.0,Calm,Calm,-,N/A,,Mostly Cloudy,0,2012-11-09 08:55:00
3:15 AM,33.1,32.5,98,30.04,5.0,Calm,Calm,-,N/A,,Overcast,0,2012-11-09 09:15:00
3:35 AM,37.6,37.0,98,30.04,4.0,SE,3.5,-,N/A,,Overcast,140,2012-11-09 09:35:00
3:55 AM,37.8,36.7,96,30.04,4.0,SE,3.5,-,N/A,,Scattered Clouds,140,2012-11-09 09:55:00
4:15 AM,36.5,35.4,96,30.04,3.0,SE,3.5,-,N/A,,Clear,130,2012-11-09 10:15:00
4:35 AM,35.1,34.0,96,30.05,2.5,Calm,Calm,-,N/A,,Scattered Clouds,0,2012-11-09 10:35:00
4:55 AM,36.7,35.8,97,30.04,2.5,East,4.6,-,N/A,,Mostly Cloudy,100,2012-11-09 10:55:00
5:15 AM,39.0,37.9,96,30.04,3.0,ESE,3.5,-,N/A,,Overcast,120,2012-11-09 11:15:00
5:55 AM,36.1,34.7,94,30.04,3.0,ESE,3.5,-,N/A,,Clear,110,2012-11-09 11:55:00
6:15 AM,34.7,33.8,97,30.05,2.0,Calm,Calm,-,N/A,,Mostly Cloudy,0,2012-11-09 12:15:00
6:35 AM,35.4,34.5,97,30.04,1.8,Calm,Calm,-,N/A,,Overcast,0,2012-11-09 12:35:00
6:55 AM,35.6,34.7,97,30.04,1.2,Calm,Calm,-,N/A,,Overcast,0,2012-11-09 12:55:00
7:15 AM,35.1,34.2,97,30.05,1.2,Calm,Calm,-,N/A,,Scattered Clouds,0,2012-11-09 13:15:00
7:35 AM,34.3,33.6,97,30.05,1.2,Calm,Calm,-,N/A,,Mostly Cloudy,0,2012-11-09 13:35:00
7:55 AM,37.0,36.1,97,30.06,1.5,Calm,Calm,-,N/A,,Overcast,0,2012-11-09 13:55:00
8:15 AM,40.1,39.2,97,30.05,2.5,Calm,Calm,-,N/A,,Overcast,0,2012-11-09 14:15:00
8:55 AM,41.4,39.4,93,30.06,2.5,East,3.5,-,N/A,,Overcast,80,2012-11-09 14:55:00
9:15 AM,42.1,39.4,90,30.06,3.0,ENE,5.8,-,N/A,,Overcast,70,2012-11-09 15:15:00
9:35 AM,42.8,39.2,87,30.06,4.0,East,4.6,-,N/A,,Overcast,100,2012-11-09 15:35:00
9:55 AM,43.0,38.8,85,30.05,4.0,East,4.6,-,N/A,,Overcast,100,2012-11-09 15:55:00
10:15 AM,43.5,39.0,84,30.05,5.0,ESE,5.8,-,N/A,,Overcast,120,2012-11-09 16:15:00
10:35 AM,43.7,38.7,82,30.05,5.0,ESE,4.6,-,N/A,,Overcast,120,2012-11-09 16:35:00
10:55 AM,45.3,39.0,79,30.05,5.0,ESE,3.5,-,N/A,,Overcast,120,2012-11-09 16:55:00
11:15 AM,47.3,37.9,70,30.03,5.0,East,3.5,-,N/A,,Overcast,100,2012-11-09 17:15:00
11:35 AM,47.8,37.9,69,30.02,7.0,ENE,4.6,-,N/A,,Overcast,60,2012-11-09 17:35:00
11:55 AM,48.6,37.9,67,30.02,7.0,ENE,4.6,-,N/A,,Overcast,70,2012-11-09 17:55:00
12:15 PM,48.4,37.9,67,30.01,7.0,East,4.6,-,N/A,,Overcast,100,2012-11-09 18:15:00
12:35 PM,49.3,38.1,65,30.01,7.0,ENE,5.8,-,N/A,,Overcast,70,2012-11-09 18:35:00
12:55 PM,50.2,38.7,65,30.00,7.0,ENE,4.6,-,N/A,,Overcast,70,2012-11-09 18:55:00
1:15 PM,50.5,38.5,63,30.00,7.0,East,8.1,-,N/A,,Overcast,80,2012-11-09 19:15:00
1:35 PM,50.2,38.1,63,29.99,7.0,East,8.1,-,N/A,,Mostly Cloudy,90,2012-11-09 19:35:00
1:55 PM,50.5,38.3,63,29.99,7.0,East,8.1,-,N/A,,Mostly Cloudy,90,2012-11-09 19:55:00
2:15 PM,49.6,38.5,65,29.98,7.0,East,8.1,-,N/A,,Mostly Cloudy,90,2012-11-09 20:15:00
2:35 PM,49.6,38.5,65,29.98,7.0,East,8.1,-,N/A,,Overcast,80,2012-11-09 20:35:00
2:55 PM,49.5,38.7,66,29.98,7.0,East,6.9,-,N/A,,Overcast,100,2012-11-09 20:55:00
3:15 PM,49.6,39.2,67,29.98,7.0,ENE,8.1,-,N/A,,Overcast,70,2012-11-09 21:15:00
3:35 PM,49.5,39.6,69,29.98,7.0,ENE,8.1,-,N/A,,Overcast,70,2012-11-09 21:35:00
3:55 PM,49.5,39.6,69,29.98,7.0,ENE,9.2,-,N/A,,Overcast,70,2012-11-09 21:55:00
4:15 PM,49.3,39.7,70,29.97,7.0,ENE,8.1,-,N/A,,Overcast,70,2012-11-09 22:15:00
4:35 PM,49.1,39.7,70,29.97,7.0,East,6.9,-,N/A,,Overcast,80,2012-11-09 22:35:00
4:55 PM,48.7,39.6,71,29.97,7.0,East,8.1,-,N/A,,Overcast,80,2012-11-09 22:55:00
5:15 PM,49.1,39.7,70,29.98,7.0,ENE,6.9,-,N/A,,Overcast,70,2012-11-09 23:15:00
5:35 PM,49.1,39.2,69,29.99,7.0,East,6.9,-,N/A,,Overcast,90,2012-11-09 23:35:00
5:55 PM,49.1,39.2,69,30.00,7.0,East,8.1,-,N/A,,Overcast,80,2012-11-09 23:55:00
6:15 PM,48.9,39.4,70,30.00,7.0,East,6.9,-,N/A,,Overcast,80,2012-11-10 00:15:00
6:35 PM,48.7,39.6,71,30.01,7.0,East,8.1,-,N/A,,Overcast,100,2012-11-10 00:35:00
6:55 PM,48.6,39.7,72,30.01,7.0,East,6.9,-,N/A,,Overcast,90,2012-11-10 00:55:00
7:15 PM,48.4,40.3,74,30.01,7.0,East,8.1,-,N/A,,Overcast,80,2012-11-10 01:15:00
7:35 PM,48.2,40.6,75,30.02,7.0,East,9.2,-,N/A,,Overcast,80,2012-11-10 01:35:00
7:55 PM,47.8,41.0,77,30.01,7.0,East,6.9,-,N/A,,Overcast,80,2012-11-10 01:55:00
8:15 PM,47.7,41.0,78,30.01,5.0,East,6.9,-,N/A,,Overcast,80,2012-11-10 02:15:00
8:35 PM,47.7,41.0,78,30.01,5.0,East,9.2,-,N/A,,Overcast,80,2012-11-10 02:35:00
8:55 PM,47.7,41.0,78,30.02,5.0,East,6.9,-,N/A,,Overcast,80,2012-11-10 02:55:00
9:15 PM,47.5,41.2,79,30.01,5.0,East,8.1,-,N/A,,Overcast,80,2012-11-10 03:15:00
9:35 PM,47.5,41.2,79,30.01,5.0,East,6.9,-,N/A,,Overcast,80,2012-11-10 03:35:00
9:55 PM,47.5,41.4,79,30.01,5.0,East,6.9,-,N/A,,Overcast,80,2012-11-10 03:55:00
10:15 PM,47.5,41.5,80,30.02,5.0,ENE,6.9,-,N/A,,Overcast,70,2012-11-10 04:15:00
10:35 PM,47.5,41.5,80,30.02,5.0,ENE,4.6,-,N/A,,Overcast,60,2012-11-10 04:35:00
10:55 PM,47.5,41.5,80,30.01,5.0,East,6.9,-,N/A,,Overcast,80,2012-11-10 04:55:00
11:15 PM,47.7,41.9,80,30.01,5.0,East,6.9,-,N/A,,Overcast,80,2012-11-10 05:15:00
11:35 PM,47.7,42.1,81,30.01,5.0,East,8.1,-,N/A,,Overcast,80,2012-11-10 05:35:00
11:55 PM,47.7,42.3,82,30.00,5.0,East,8.1,-,N/A,,Overcast,100,2012-11-10 05:55:00